Time;durP1;ratioP1;P1;durP2;ratioP2;P2;SDS_P1;SDS_P2;PMS_P1;PMS_P2;Temp;Humidity;BMP_temperature;BMP_pressure;BME280_temperature;BME280_humidity;BME280_pressure;Samples;Min_cycle;Max_cycle;Signal;HPM_P1;HPM_P2
2023/05/12 00:00:47;;;;;;;0.10;0.10;;;;;;;25.43;36.91;98810.38;1880492;75;28170;-57
2023/05/12 00:03:36;;;;;;;0.10;0.10;;;;;;;25.41;36.88;98804.33;1877368;75;28073;-57
2023/05/12 00:06:24;;;;;;;0.20;0.20;;;;;;;25.43;36.87;98806.25;1853555;75;28188;-60
2023/05/12 00:09:13;;;;;;;0.17;0.17;;;;;;;25.43;36.84;98803.50;1860240;75;28206;-56
2023/05/12 00:12:02;;;;;;;0.10;0.10;;;;;;;25.42;36.87;98803.20;1882143;75;28182;-53
2023/05/12 00:14:51;;;;;;;0.17;0.17;;;;;;;25.42;36.87;98799.08;1869662;75;28064;-54
2023/05/12 00:17:39;;;;;;;0.08;0.08;;;;;;;25.41;36.88;98792.75;1863409;75;28124;-55
2023/05/12 00:20:28;;;;;;;0.15;0.15;;;;;;;25.41;36.90;98791.95;1870949;75;28234;-56
2023/05/12 00:23:16;;;;;;;0.05;0.05;;;;;;;25.40;36.89;98788.37;1870439;75;28079;-55
2023/05/12 00:26:05;;;;;;;0.03;0.03;;;;;;;25.41;36.88;98793.33;1859065;75;28190;-57
2023/05/12 00:28:54;;;;;;;0.00;0.00;;;;;;;25.43;36.89;98791.67;1818035;77;28188;-55
2023/05/12 00:31:42;;;;;;;0.30;0.10;;;;;;;25.37;36.97;98785.31;1857071;75;28477;-57
2023/05/12 00:34:31;;;;;;;0.20;0.20;;;;;;;25.39;36.97;98787.27;1868883;76;28111;-57
2023/05/12 00:37:19;;;;;;;0.10;0.10;;;;;;;25.42;36.93;98786.71;1871514;75;28129;-56
2023/05/12 00:40:09;;;;;;;0.10;0.10;;;;;;;25.43;36.91;98780.13;1863016;76;28063;-57
2023/05/12 00:42:58;;;;;;;0.05;0.05;;;;;;;25.41;36.92;98780.38;1873298;76;28492;-55
2023/05/12 00:45:47;;;;;;;0.05;0.05;;;;;;;25.42;36.93;98782.59;1875994;75;28065;-55
2023/05/12 00:48:36;;;;;;;0.20;0.20;;;;;;;25.43;36.88;98778.75;1870341;75;28136;-56
2023/05/12 00:51:26;;;;;;;0.05;0.05;;;;;;;25.39;36.94;98778.45;1870262;76;28251;-55
2023/05/12 00:54:16;;;;;;;0.10;0.10;;;;;;;25.43;36.92;98771.05;1865218;75;28273;-56
2023/05/12 00:57:05;;;;;;;0.30;0.30;;;;;;;25.41;36.93;98763.88;1866126;76;28038;-54
2023/05/12 00:59:55;;;;;;;0.10;0.10;;;;;;;25.41;36.91;98761.13;1876715;75;28185;-57
2023/05/12 01:02:44;;;;;;;0.05;0.05;;;;;;;25.42;36.91;98763.34;1891012;75;28073;-56
2023/05/12 01:05:36;;;;;;;0.00;0.00;;;;;;;25.41;36.94;98763.08;1885426;75;28122;-58
2023/05/12 01:08:26;;;;;;;0.00;0.00;;;;;;;25.39;36.92;98762.53;1897649;75;28134;-55
2023/05/12 01:11:15;;;;;;;0.10;0.00;;;;;;;25.39;36.98;98757.03;1868936;76;28129;-54
2023/05/12 01:14:04;;;;;;;0.10;0.10;;;;;;;25.39;37.01;98757.03;1868758;76;28169;-53
2023/05/12 01:16:55;;;;;;;0.20;0.20;;;;;;;25.39;37.00;98758.41;1869605;75;28184;-53
2023/05/12 01:19:56;;;;;;;0.13;0.13;;;;;;;25.39;37.00;98757.83;1889927;75;28087;-54
2023/05/12 01:22:46;;;;;;;0.10;0.10;;;;;;;25.36;37.03;98758.39;1869535;75;28200;-55
2023/05/12 01:25:35;;;;;;;0.20;0.20;;;;;;;25.36;37.03;98760.31;1868829;76;28138;-56
2023/05/12 01:28:24;;;;;;;0.20;0.20;;;;;;;25.34;37.07;98757.81;1873103;75;28170;-57
2023/05/12 01:31:14;;;;;;;0.17;0.17;;;;;;;25.34;37.07;98755.63;1897802;75;28115;-56
2023/05/12 01:34:03;;;;;;;0.10;0.10;;;;;;;25.35;37.08;98754.52;1895720;75;28115;-55
2023/05/12 01:36:51;;;;;;;0.20;0.20;;;;;;;25.36;37.08;98752.89;1897643;75;28113;-52
2023/05/12 01:39:40;;;;;;;0.10;0.10;;;;;;;25.37;37.02;98750.41;1897626;75;28103;-55
2023/05/12 01:42:30;;;;;;;0.20;0.10;;;;;;;25.37;37.03;98749.57;1897458;75;28156;-55
2023/05/12 01:45:19;;;;;;;0.15;0.15;;;;;;;25.35;37.01;98749.85;1868677;76;28201;-54
2023/05/12 01:48:09;;;;;;;0.00;0.00;;;;;;;25.37;37.03;98752.32;1892834;75;28564;-54
2023/05/12 01:51:02;;;;;;;0.40;0.10;;;;;;;25.36;37.08;98753.44;1879500;75;28225;-55
2023/05/12 01:53:51;;;;;;;0.20;0.20;;;;;;;25.36;37.09;98747.39;1897515;75;28128;-55
2023/05/12 01:56:39;;;;;;;0.30;0.30;;;;;;;25.32;37.12;98747.64;1855036;75;38429;-54
2023/05/12 01:59:28;;;;;;;7.28;2.67;;;;;;;25.33;37.13;98744.34;1869580;75;28303;-55
2023/05/12 02:02:17;;;;;;;0.40;0.40;;;;;;;25.33;37.13;98747.92;1895508;74;28248;-56
2023/05/12 02:05:07;;;;;;;0.50;0.40;;;;;;;25.35;37.06;98747.64;1888718;75;28126;-55
2023/05/12 02:07:55;;;;;;;0.20;0.20;;;;;;;25.35;37.09;98747.64;1868726;76;28056;-54
2023/05/12 02:10:43;;;;;;;0.10;0.10;;;;;;;25.35;37.06;98742.98;1891513;75;28138;-58
2023/05/12 02:13:31;;;;;;;0.10;0.10;;;;;;;25.36;36.98;98750.14;1893473;75;28114;-56
2023/05/12 02:16:21;;;;;;;3.57;2.00;;;;;;;25.34;36.89;98746.81;1882334;75;28001;-56
2023/05/12 02:19:09;;;;;;;3.37;1.80;;;;;;;25.34;36.91;98746.02;1868776;76;28115;-56
2023/05/12 02:21:58;;;;;;;5.50;2.40;;;;;;;25.33;36.98;98747.09;1874120;75;28160;-56
2023/05/12 02:24:46;;;;;;;7.95;3.00;;;;;;;25.35;36.98;98750.39;1876223;75;28034;-56
2023/05/12 02:27:35;;;;;;;9.30;3.30;;;;;;;25.34;36.99;98747.39;1895700;75;28301;-55
2023/05/12 02:30:23;;;;;;;11.03;3.65;;;;;;;25.33;37.01;98746.55;1893903;75;31177;-54
2023/05/12 02:33:12;;;;;;;6.30;2.55;;;;;;;25.34;36.99;98743.27;1898776;75;28192;-55
2023/05/12 02:36:00;;;;;;;4.15;2.10;;;;;;;25.33;37.01;98742.97;1896971;75;28125;-53
2023/05/12 02:38:49;;;;;;;4.90;2.37;;;;;;;25.33;37.01;98744.34;1865234;76;28254;-55
2023/05/12 02:41:38;;;;;;;6.43;2.57;;;;;;;25.32;37.02;98746.83;1868678;76;28532;-55
2023/05/12 02:44:26;;;;;;;5.58;2.42;;;;;;;25.32;37.06;98733.09;1893776;75;28147;-57
2023/05/12 02:47:15;;;;;;;7.17;3.00;;;;;;;25.28;37.10;98735.53;1897771;75;28234;-54
2023/05/12 02:50:03;;;;;;;5.75;2.50;;;;;;;25.28;37.11;98736.08;1868673;76;28162;-56
2023/05/12 02:52:52;;;;;;;4.73;2.03;;;;;;;25.28;37.10;98733.33;1875033;75;28137;-56
2023/05/12 02:55:41;;;;;;;3.80;1.17;;;;;;;25.28;37.11;98730.58;1899878;75;28191;-56
2023/05/12 02:58:29;;;;;;;4.58;1.65;;;;;;;25.28;37.11;98732.78;1896883;75;28121;-53
2023/05/12 03:01:18;;;;;;;12.10;3.92;;;;;;;25.27;37.13;98727.57;1881059;75;28248;-55
2023/05/12 03:04:06;;;;;;;6.50;2.70;;;;;;;25.27;37.06;98729.78;1894581;75;28151;-56
2023/05/12 03:06:54;;;;;;;7.03;2.70;;;;;;;25.27;36.97;98733.06;1891076;75;28180;-56
2023/05/12 03:09:43;;;;;;;9.50;3.40;;;;;;;25.25;36.96;98727.82;1895892;75;28726;-55
2023/05/12 03:12:31;;;;;;;10.35;3.40;;;;;;;25.25;36.97;98731.14;1879418;75;28183;-54
2023/05/12 03:15:20;;;;;;;7.17;2.70;;;;;;;25.26;37.00;98723.16;1899448;75;28103;-54
2023/05/12 03:18:08;;;;;;;9.50;3.58;;;;;;;25.26;36.97;98721.23;1896897;75;28129;-55
2023/05/12 03:20:57;;;;;;;8.18;3.02;;;;;;;25.27;36.88;98715.20;1868554;76;28261;-52
2023/05/12 03:23:46;;;;;;;5.07;2.03;;;;;;;25.27;36.90;98719.32;1897647;74;28153;-57
2023/05/12 03:26:34;;;;;;;6.97;2.75;;;;;;;25.26;36.91;98717.66;1879435;75;28112;-56
2023/05/12 03:29:23;;;;;;;6.90;2.70;;;;;;;25.25;36.96;98707.77;1893960;75;28170;-55
2023/05/12 03:32:11;;;;;;;4.92;2.20;;;;;;;25.24;36.99;98712.44;1869085;76;28271;-56
2023/05/12 03:35:01;;;;;;;4.72;2.20;;;;;;;25.24;37.00;98710.23;1869052;76;28191;-54
2023/05/12 03:37:50;;;;;;;4.93;2.20;;;;;;;25.23;36.98;98709.94;1870238;75;28210;-55
2023/05/12 03:40:38;;;;;;;6.40;2.60;;;;;;;25.23;37.02;98708.56;1896086;75;28262;-54
2023/05/12 03:43:26;;;;;;;7.28;2.75;;;;;;;25.23;37.07;98709.94;1868751;76;28308;-56
2023/05/12 03:46:14;;;;;;;7.40;2.80;;;;;;;25.23;36.99;98708.56;1868854;76;28144;-56
2023/05/12 03:49:03;;;;;;;8.60;2.90;;;;;;;25.22;36.96;98706.39;1882651;75;28569;-56
2023/05/12 03:51:52;;;;;;;8.58;3.10;;;;;;;25.22;37.03;98705.56;1884687;75;28215;-55
2023/05/12 03:54:40;;;;;;;10.65;3.42;;;;;;;25.20;36.97;98700.89;1869370;75;28275;-54
2023/05/12 03:57:28;;;;;;;10.23;3.58;;;;;;;25.20;36.98;98702.26;1839809;76;28251;-54
2023/05/12 04:00:18;;;;;;;10.95;3.58;;;;;;;25.20;37.03;98696.77;1887407;75;30109;-56
2023/05/12 04:03:06;;;;;;;11.48;3.65;;;;;;;25.19;36.98;98698.68;1874532;75;30149;-57
2023/05/12 04:05:59;;;;;;;9.20;3.12;;;;;;;25.20;36.95;98700.34;1891651;75;28268;-58
2023/05/12 04:08:47;;;;;;;11.05;3.60;;;;;;;25.22;36.96;98691.81;1890391;75;28309;-57
2023/05/12 04:11:35;;;;;;;11.78;3.70;;;;;;;25.18;37.02;98690.72;1877062;75;28199;-57
2023/05/12 04:14:24;;;;;;;11.90;3.87;;;;;;;25.19;37.00;98689.05;1882719;75;28188;-57
2023/05/12 04:17:13;;;;;;;12.10;3.87;;;;;;;25.20;37.14;98694.02;1883845;75;28190;-56
2023/05/12 04:20:03;;;;;;;11.55;3.70;;;;;;;25.18;37.21;98691.52;1889670;75;28120;-56
2023/05/12 04:22:51;;;;;;;12.70;4.03;;;;;;;25.20;37.23;98698.14;1868272;76;28035;-57
2023/05/12 04:25:41;;;;;;;12.65;4.00;;;;;;;25.19;37.24;98697.84;1887841;75;28142;-57
2023/05/12 04:28:30;;;;;;;13.43;4.25;;;;;;;25.18;37.26;98703.08;1867225;75;28146;-55
2023/05/12 04:31:19;;;;;;;9.95;3.45;;;;;;;25.19;37.27;98706.92;1879101;75;28126;-53
2023/05/12 04:34:08;;;;;;;13.45;4.10;;;;;;;25.19;37.30;98715.71;1883854;75;28120;-56
2023/05/12 04:36:56;;;;;;;12.68;4.03;;;;;;;25.18;37.27;98718.20;1892164;75;28637;-56
2023/05/12 04:39:45;;;;;;;13.48;4.70;;;;;;;25.16;37.27;98721.20;1885772;75;28239;-56
2023/05/12 04:42:33;;;;;;;11.88;3.80;;;;;;;25.15;37.36;98720.11;1895865;75;36320;-55
2023/05/12 04:45:22;;;;;;;10.05;3.40;;;;;;;25.16;37.39;98720.37;1872683;75;28217;-55
2023/05/12 04:48:11;;;;;;;12.33;3.90;;;;;;;25.17;37.32;98711.88;1894422;75;28260;-57
2023/05/12 04:51:00;;;;;;;11.75;3.85;;;;;;;25.17;37.30;98719.28;1874507;75;28172;-55
2023/05/12 04:53:49;;;;;;;10.63;3.67;;;;;;;25.20;37.28;98731.13;1876404;75;28175;-55
2023/05/12 04:56:37;;;;;;;8.68;3.20;;;;;;;25.18;37.25;98729.20;1868734;76;28477;-56
2023/05/12 04:59:27;;;;;;;12.10;4.05;;;;;;;25.17;37.23;98726.16;1875129;75;28139;-55
2023/05/12 05:02:16;;;;;;;12.93;4.97;;;;;;;25.17;37.24;98730.27;1881648;75;28212;-53
2023/05/12 05:05:07;;;;;;;14.45;4.80;;;;;;;25.17;37.27;98740.73;1884575;75;28235;-55
2023/05/12 05:07:55;;;;;;;15.28;5.12;;;;;;;25.16;37.31;98739.61;1877472;75;28241;-55
2023/05/12 05:10:45;;;;;;;14.13;5.37;;;;;;;25.17;37.27;98743.48;1867057;75;28198;-54
2023/05/12 05:13:34;;;;;;;14.43;4.90;;;;;;;25.17;37.26;98746.23;1895197;75;28270;-56
2023/05/12 05:16:23;;;;;;;11.90;3.90;;;;;;;25.18;37.25;98752.56;1888572;75;28269;-56
2023/05/12 05:19:12;;;;;;;14.90;4.70;;;;;;;25.18;37.25;98751.19;1881035;75;28600;-55
2023/05/12 05:22:02;;;;;;;9.03;3.10;;;;;;;25.15;37.32;98753.09;1883923;75;28146;-56
2023/05/12 05:24:51;;;;;;;7.00;2.60;;;;;;;25.18;37.31;98753.93;1867597;75;28156;-56
2023/05/12 05:27:40;;;;;;;8.35;2.90;;;;;;;25.15;37.29;98748.96;1869515;75;28097;-56
2023/05/12 05:30:29;;;;;;;13.90;4.37;;;;;;;25.17;37.30;98755.02;1868423;76;28286;-55
2023/05/12 05:33:18;;;;;;;11.63;4.27;;;;;;;25.15;37.31;98759.41;1860677;76;28211;-56
2023/05/12 05:36:08;;;;;;;14.35;4.53;;;;;;;25.11;37.33;98756.91;1898089;75;28267;-54
2023/05/12 05:38:57;;;;;;;13.05;4.17;;;;;;;25.15;37.32;98759.95;1856420;77;28123;-57
2023/05/12 05:41:45;;;;;;;1.22;1.12;;;;;;;25.11;37.32;98758.28;1900513;75;28187;-56
2023/05/12 05:44:34;;;;;;;16.12;5.10;;;;;;;25.08;37.40;98760.21;1881610;75;28141;-55
2023/05/12 05:47:24;;;;;;;16.27;5.62;;;;;;;25.14;37.38;98761.03;1892194;75;28264;-56
2023/05/12 05:50:13;;;;;;;13.97;4.37;;;;;;;25.14;37.37;98766.00;1839722;74;28248;-56
2023/05/12 05:53:02;;;;;;;14.10;4.47;;;;;;;25.14;37.39;98761.88;1859112;76;28144;-55
2023/05/12 05:55:51;;;;;;;14.68;5.15;;;;;;;25.16;37.33;98762.97;1891416;75;28203;-55
2023/05/12 05:58:40;;;;;;;14.50;4.83;;;;;;;25.13;37.33;98754.73;1885016;75;28118;-55
2023/05/12 06:01:29;;;;;;;10.23;3.60;;;;;;;25.14;37.33;98756.92;1856868;77;28285;-54
2023/05/12 06:04:17;;;;;;;28.27;8.08;;;;;;;25.15;37.32;98760.79;1886882;74;28179;-55
2023/05/12 06:07:07;;;;;;;14.53;6.37;;;;;;;25.18;37.24;98758.05;1878359;74;28162;-55
2023/05/12 06:09:55;;;;;;;15.33;8.63;;;;;;;25.17;37.25;98762.72;1893065;75;28295;-54
2023/05/12 06:12:44;;;;;;;12.82;4.35;;;;;;;25.20;37.17;98766.31;1868468;76;28216;-55
2023/05/12 06:15:33;;;;;;;13.30;4.92;;;;;;;25.19;37.17;98766.02;1874371;75;31180;-54
2023/05/12 06:18:23;;;;;;;18.27;8.93;;;;;;;25.20;37.18;98759.98;1896764;75;28167;-57
2023/05/12 06:21:13;;;;;;;20.67;14.67;;;;;;;25.20;37.16;98761.36;1880476;75;28165;-54
2023/05/12 06:24:02;;;;;;;15.53;5.40;;;;;;;25.19;37.15;98761.06;1868674;76;28242;-54
2023/05/12 06:26:51;;;;;;;13.88;5.40;;;;;;;25.20;37.12;98761.36;1873688;75;28277;-54
2023/05/12 06:29:39;;;;;;;6.95;2.70;;;;;;;25.18;37.14;98760.23;1896123;75;28177;-55
2023/05/12 06:32:28;;;;;;;9.10;3.17;;;;;;;25.16;37.19;98765.17;1889449;75;28094;-55
2023/05/12 06:35:16;;;;;;;5.65;2.05;;;;;;;25.17;37.23;98766.01;1865513;74;28207;-53
2023/05/12 06:38:05;;;;;;;2.27;1.50;;;;;;;25.18;37.21;98763.55;1893951;75;28153;-55
2023/05/12 06:40:53;;;;;;;1.55;1.35;;;;;;;25.16;37.21;98761.05;1896310;75;28104;-55
2023/05/12 06:43:41;;;;;;;1.40;1.20;;;;;;;25.15;37.27;98762.70;1895305;75;28099;-57
2023/05/12 06:46:29;;;;;;;1.63;1.37;;;;;;;25.16;37.26;98764.34;1868356;76;28270;-54
2023/05/12 06:49:18;;;;;;;1.30;1.20;;;;;;;25.16;37.26;98769.30;1888386;75;31148;-54
2023/05/12 06:52:07;;;;;;;2.08;1.47;;;;;;;25.17;37.26;98764.09;1894356;75;28266;-55
2023/05/12 06:54:55;;;;;;;1.77;1.37;;;;;;;25.18;37.27;98770.42;1868599;76;28139;-54
2023/05/12 06:57:44;;;;;;;2.47;1.65;;;;;;;25.17;37.31;98766.01;1892975;75;28118;-54
2023/05/12 07:00:32;;;;;;;3.77;2.08;;;;;;;25.18;37.29;98771.80;1876695;75;28330;-54
2023/05/12 07:03:21;;;;;;;4.35;2.27;;;;;;;25.18;37.27;98769.05;1867925;76;28323;-54
2023/05/12 07:06:09;;;;;;;4.20;2.13;;;;;;;25.18;37.30;98770.42;1868475;76;28242;-51
2023/05/12 07:08:58;;;;;;;3.08;1.75;;;;;;;25.18;37.30;98767.67;1884059;75;28249;-53
2023/05/12 07:11:47;;;;;;;3.10;2.05;;;;;;;25.17;37.32;98766.01;1873088;75;28738;-52
2023/05/12 07:14:36;;;;;;;2.25;1.60;;;;;;;25.18;37.25;98767.67;1901068;75;28132;-54
2023/05/12 07:17:24;;;;;;;2.90;1.85;;;;;;;25.19;37.30;98767.94;1901363;75;28149;-53
2023/05/12 07:20:12;;;;;;;2.72;1.90;;;;;;;25.20;37.27;98772.34;1894639;75;28156;-54
2023/05/12 07:23:01;;;;;;;3.27;1.87;;;;;;;25.20;37.29;98768.23;1898372;75;28203;-52
2023/05/12 07:25:49;;;;;;;3.83;2.00;;;;;;;25.18;37.30;98764.92;1868431;76;28234;-53
2023/05/12 07:28:37;;;;;;;4.55;2.30;;;;;;;25.18;37.32;98762.17;1892366;75;28476;-56
2023/05/12 07:31:26;;;;;;;3.03;1.87;;;;;;;25.20;37.31;98759.44;1894608;75;28329;-55
2023/05/12 07:34:14;;;;;;;1.60;1.40;;;;;;;25.21;37.27;98760.24;1881648;75;28100;-56
2023/05/12 07:37:05;;;;;;;1.57;1.20;;;;;;;25.22;37.29;98759.16;1868891;76;28113;-58
2023/05/12 07:39:52;;;;;;;2.50;1.60;;;;;;;25.22;37.28;98755.04;1891134;75;28211;-56
2023/05/12 07:42:40;;;;;;;1.37;1.22;;;;;;;25.23;37.29;98760.80;1878348;75;28065;-56
2023/05/12 07:45:29;;;;;;;1.55;1.25;;;;;;;25.21;37.30;98758.87;1884432;75;28240;-55
2023/05/12 07:48:17;;;;;;;1.32;1.20;;;;;;;25.24;37.31;98756.97;1868662;76;28149;-57
2023/05/12 07:51:07;;;;;;;2.40;1.60;;;;;;;25.23;37.25;98755.30;1889021;75;28097;-55
2023/05/12 07:53:56;;;;;;;2.73;1.63;;;;;;;25.16;37.41;98756.09;1879261;75;28077;-54
2023/05/12 07:56:45;;;;;;;1.93;1.50;;;;;;;25.21;37.31;98752.83;1868588;76;28146;-54
2023/05/12 07:59:33;;;;;;;2.67;1.70;;;;;;;25.21;37.31;98752.83;1893961;75;28167;-54
2023/05/12 08:02:22;;;;;;;2.83;1.80;;;;;;;25.19;37.38;98750.91;1900077;75;28122;-54
2023/05/12 08:05:11;;;;;;;3.33;1.85;;;;;;;25.23;37.39;98745.14;1896375;75;28185;-53
2023/05/12 08:07:59;;;;;;;1.52;1.27;;;;;;;25.24;37.38;98746.80;1886556;75;28249;-55
2023/05/12 08:10:47;;;;;;;3.35;1.87;;;;;;;25.26;37.28;98746.52;1896146;75;28160;-56
2023/05/12 08:13:37;;;;;;;2.70;1.77;;;;;;;25.24;37.41;98744.59;1895511;75;28168;-57
2023/05/12 08:16:26;;;;;;;3.12;1.90;;;;;;;25.19;37.66;98740.45;1868615;76;28138;-47
2023/05/12 08:19:14;;;;;;;3.15;1.98;;;;;;;25.20;37.82;98739.37;1868323;76;28185;-48
2023/05/12 08:22:03;;;;;;;3.42;1.90;;;;;;;25.25;37.73;98744.89;1891313;75;28120;-50
2023/05/12 08:24:54;;;;;;;4.12;2.17;;;;;;;25.25;37.82;98749.02;1901054;75;28185;-51
2023/05/12 08:27:42;;;;;;;0.70;0.70;;;;;;;25.29;37.76;98749.57;1889435;75;28164;-51
2023/05/12 08:30:31;;;;;;;2.25;1.60;;;;;;;25.27;37.72;98744.06;1868349;76;28099;-50
2023/05/12 08:33:19;;;;;;;2.30;1.60;;;;;;;25.29;37.73;98741.33;1875930;75;28199;-50
2023/05/12 08:36:08;;;;;;;1.85;1.40;;;;;;;25.29;37.76;98739.12;1900560;75;28154;-47
2023/05/12 08:38:57;;;;;;;3.12;1.72;;;;;;;25.30;37.80;98743.50;1896001;75;28216;-49
2023/05/12 08:42:08;;;;;;;2.30;1.60;;;;;;;25.28;37.81;98737.45;1869105;76;28219;-49
2023/05/12 08:44:55;;;;;;;2.67;1.80;;;;;;;25.31;37.81;98735.55;1889055;75;28119;-47
2023/05/12 08:47:45;;;;;;;2.83;1.87;;;;;;;25.27;37.85;98733.90;1894889;75;28234;-52
2023/05/12 08:50:35;;;;;;;2.35;1.60;;;;;;;25.28;37.83;98731.95;1889791;75;28143;-51
2023/05/12 08:53:25;;;;;;;2.90;1.92;;;;;;;25.29;37.86;98728.95;1895563;75;28136;-51
2023/05/12 08:56:16;;;;;;;2.95;1.75;;;;;;;25.30;37.81;98732.50;1901605;75;28108;-48
2023/05/12 08:59:05;;;;;;;2.40;1.60;;;;;;;25.30;37.83;98731.13;1879625;75;28191;-50
2023/05/12 09:01:56;;;;;;;2.10;1.57;;;;;;;25.30;37.82;98727.00;1901500;75;28180;-50
2023/05/12 09:04:44;;;;;;;2.50;1.70;;;;;;;25.30;37.85;98727.00;1886073;75;28244;-49
2023/05/12 09:07:35;;;;;;;2.10;1.43;;;;;;;25.30;37.74;98725.09;1892247;75;28179;-50
2023/05/12 09:10:26;;;;;;;2.85;1.65;;;;;;;25.29;37.80;98726.75;1899856;75;28145;-49
2023/05/12 09:13:17;;;;;;;2.62;1.60;;;;;;;25.27;37.76;98725.66;1897569;75;32083;-49
2023/05/12 09:16:09;;;;;;;2.92;1.70;;;;;;;25.33;37.70;98727.31;1885869;75;28127;-49
2023/05/12 09:18:59;;;;;;;2.00;1.40;;;;;;;25.31;37.71;98722.63;1896680;75;28228;-50
2023/05/12 09:21:48;;;;;;;2.62;1.67;;;;;;;25.30;37.70;98717.38;1894244;75;28292;-51
2023/05/12 09:24:37;;;;;;;3.40;1.87;;;;;;;25.30;37.76;98716.01;1864594;76;28294;-52
2023/05/12 09:27:28;;;;;;;3.90;1.92;;;;;;;25.29;37.75;98715.75;1868674;76;28330;-49
2023/05/12 09:30:16;;;;;;;5.60;2.25;;;;;;;25.31;37.71;98715.76;1896747;75;30106;-49
2023/05/12 09:33:09;;;;;;;6.87;2.60;;;;;;;25.32;37.71;98718.77;1895088;75;28117;-50
2023/05/12 09:35:59;;;;;;;5.40;2.40;;;;;;;25.33;37.70;98721.81;1868994;76;28189;-49
2023/05/12 09:39:03;;;;;;;6.87;2.70;;;;;;;25.31;37.66;98714.92;1883769;75;28156;-50
2023/05/12 09:41:52;;;;;;;8.00;2.87;;;;;;;25.31;37.67;98718.51;1868940;76;28132;-50
2023/05/12 09:44:41;;;;;;;6.53;2.60;;;;;;;25.30;37.69;98718.76;1889257;75;28185;-48
2023/05/12 09:47:30;;;;;;;7.65;2.85;;;;;;;25.29;37.74;98722.63;1879703;75;28191;-47
2023/05/12 09:50:21;;;;;;;9.05;3.17;;;;;;;25.30;37.73;98719.59;1884001;75;28144;-51
2023/05/12 09:53:09;;;;;;;7.20;2.75;;;;;;;25.27;37.73;98722.07;1880966;75;28240;-50
2023/05/12 09:55:58;;;;;;;8.83;3.03;;;;;;;25.30;37.73;98714.64;1893489;75;28193;-50
2023/05/12 09:58:48;;;;;;;5.53;2.30;;;;;;;25.29;37.68;98717.12;1879334;75;28434;-50
2023/05/12 10:01:37;;;;;;;5.25;2.30;;;;;;;25.30;37.69;98712.72;1885623;75;28149;-51
2023/05/12 10:04:26;;;;;;;5.47;2.12;;;;;;;25.29;37.63;98711.63;1868957;76;28169;-49
2023/05/12 10:07:16;;;;;;;1.20;1.10;;;;;;;25.32;37.63;98716.59;1888076;75;28187;-50
2023/05/12 10:10:06;;;;;;;1.12;0.95;;;;;;;25.30;37.60;98713.27;1893892;75;33014;-47
2023/05/12 10:12:56;;;;;;;0.70;0.70;;;;;;;25.29;37.63;98723.45;1868920;76;28186;-49
2023/05/12 10:15:46;;;;;;;1.70;1.30;;;;;;;25.27;37.61;98717.95;1879089;75;28126;-47
2023/05/12 10:18:34;;;;;;;2.02;1.40;;;;;;;25.28;37.61;98715.46;1893510;75;28242;-49
2023/05/12 10:21:25;;;;;;;2.50;1.57;;;;;;;25.28;37.59;98712.17;1880847;75;28049;-48
2023/05/12 10:24:17;;;;;;;3.25;2.02;;;;;;;25.29;37.59;98710.25;1883992;75;28160;-52
2023/05/12 10:27:08;;;;;;;4.25;2.00;;;;;;;25.29;37.56;98710.25;1867085;75;28238;-49
2023/05/12 10:29:57;;;;;;;3.22;1.90;;;;;;;25.29;37.49;98702.00;1881775;75;28226;-48
2023/05/12 10:32:45;;;;;;;5.70;2.62;;;;;;;25.29;37.50;98706.13;1890114;75;28225;-46
2023/05/12 10:35:36;;;;;;;5.12;2.30;;;;;;;25.29;37.45;98703.38;1886005;75;28288;-46
2023/05/12 10:38:25;;;;;;;4.67;2.22;;;;;;;25.28;37.47;98703.09;1868250;76;28254;-51
2023/05/12 10:41:13;;;;;;;6.05;2.47;;;;;;;25.29;37.44;98697.34;1892747;75;28121;-50
2023/05/12 10:44:02;;;;;;;6.57;2.63;;;;;;;25.28;37.40;98700.34;1897026;75;28177;-48
2023/05/12 10:46:53;;;;;;;8.00;3.20;;;;;;;25.28;37.42;98694.30;1882884;75;28216;-48
2023/05/12 10:49:42;;;;;;;8.18;2.90;;;;;;;25.28;37.36;98691.55;1890181;75;28197;-50
2023/05/12 10:52:31;;;;;;;9.68;3.25;;;;;;;25.29;37.35;98696.51;1898874;75;28194;-50
2023/05/12 10:55:22;;;;;;;10.20;3.40;;;;;;;25.27;37.37;98694.58;1882558;75;28129;-49
2023/05/12 10:58:13;;;;;;;10.18;3.17;;;;;;;25.27;37.37;98692.66;1882777;75;31087;-50
2023/05/12 11:01:08;;;;;;;10.20;3.30;;;;;;;25.24;37.36;98690.45;1890503;75;28160;-49
2023/05/12 11:04:00;;;;;;;9.38;3.27;;;;;;;25.26;37.35;98690.17;1889761;75;28187;-48
2023/05/12 11:06:51;;;;;;;12.25;3.67;;;;;;;25.28;37.30;98689.34;1897414;75;28169;-52
2023/05/12 11:09:42;;;;;;;10.80;3.57;;;;;;;25.25;37.23;98683.03;1886147;74;28212;-52
2023/05/12 11:12:34;;;;;;;11.43;3.80;;;;;;;25.25;37.21;98684.41;1869202;76;28094;-48
2023/05/12 11:15:22;;;;;;;11.08;3.83;;;;;;;25.25;37.20;98683.03;1861351;76;28179;-50
2023/05/12 11:18:16;;;;;;;2.25;1.15;;;;;;;25.25;37.23;98689.34;1861676;76;28110;-46
2023/05/12 11:21:04;;;;;;;10.65;3.67;;;;;;;25.26;37.17;98684.67;1852487;76;28162;-48
2023/05/12 11:23:52;;;;;;;9.65;3.30;;;;;;;25.26;37.12;98686.05;1868891;76;28169;-48
2023/05/12 11:26:41;;;;;;;10.90;3.35;;;;;;;25.25;37.16;98680.29;1861297;76;28102;-47
2023/05/12 11:29:29;;;;;;;10.90;3.33;;;;;;;25.24;37.10;98682.75;1861646;76;28085;-49
2023/05/12 11:32:18;;;;;;;11.07;3.53;;;;;;;25.25;37.15;98685.21;1851531;76;28166;-48
2023/05/12 11:35:18;;;;;;;12.58;4.03;;;;;;;25.26;37.14;98680.00;1861633;76;28182;-47
2023/05/12 11:38:09;;;;;;;12.33;3.90;;;;;;;25.26;37.11;98675.05;1861341;76;28590;-49
2023/05/12 11:40:57;;;;;;;14.78;4.62;;;;;;;25.24;37.13;98671.75;1847948;76;28308;-48
2023/05/12 11:43:46;;;;;;;14.28;4.85;;;;;;;25.23;37.09;98672.30;1868727;76;28262;-49
2023/05/12 11:46:34;;;;;;;13.38;4.37;;;;;;;25.23;37.09;98673.67;1837438;77;28258;-48
2023/05/12 11:49:22;;;;;;;12.85;4.05;;;;;;;25.24;37.07;98664.88;1861475;76;28357;-50
2023/05/12 11:52:11;;;;;;;13.13;4.08;;;;;;;25.24;37.05;98671.75;1864567;76;28126;-53
2023/05/12 11:55:00;;;;;;;14.23;4.45;;;;;;;25.25;37.07;98669.30;1851654;76;28112;-50
2023/05/12 11:57:57;;;;;;;12.43;4.20;;;;;;;25.24;37.08;98668.45;1847881;76;28253;-51
2023/05/12 12:00:46;;;;;;;0.33;0.33;;;;;;;25.25;37.08;98657.72;1861552;76;28191;-51
2023/05/12 12:03:36;;;;;;;0.65;0.65;;;;;;;25.24;37.08;98657.47;1848402;76;28287;-49
2023/05/12 12:06:24;;;;;;;0.47;0.47;;;;;;;25.25;37.09;98654.17;1837560;77;28664;-52
2023/05/12 12:09:12;;;;;;;0.40;0.40;;;;;;;25.25;37.06;98651.42;1867852;76;28126;-51
2023/05/12 12:12:02;;;;;;;0.30;0.30;;;;;;;25.23;37.11;98653.05;1861121;75;28350;-53
2023/05/12 12:14:50;;;;;;;0.30;0.30;;;;;;;25.25;37.05;98643.98;1867969;76;28081;-48
2023/05/12 12:17:39;;;;;;;0.28;0.28;;;;;;;25.24;37.04;98645.09;1856990;77;28064;-48
2023/05/12 12:20:28;;;;;;;0.28;0.28;;;;;;;25.24;37.06;98640.14;1892812;75;28060;-49
2023/05/12 12:23:16;;;;;;;0.60;0.30;;;;;;;25.27;37.01;98650.59;1884349;75;28068;-46
2023/05/12 12:26:05;;;;;;;0.40;0.40;;;;;;;25.27;37.04;98641.81;1885639;75;28116;-49
2023/05/12 12:28:52;;;;;;;0.37;0.37;;;;;;;25.28;37.00;98639.86;1868539;76;28270;-51
2023/05/12 12:31:41;;;;;;;0.30;0.30;;;;;;;25.30;36.98;98640.41;1879757;75;28184;-47
2023/05/12 12:34:29;;;;;;;0.45;0.40;;;;;;;25.27;36.97;98637.69;1868626;75;28028;-51
2023/05/12 12:37:17;;;;;;;1.75;0.35;;;;;;;25.27;36.95;98640.44;1896615;75;28099;-50
2023/05/12 12:40:07;;;;;;;0.40;0.30;;;;;;;25.29;36.97;98645.11;1856856;77;28078;-49
2023/05/12 12:42:55;;;;;;;0.20;0.20;;;;;;;25.30;36.99;98639.03;1874002;75;28264;-51
2023/05/12 12:45:44;;;;;;;0.35;0.35;;;;;;;25.31;36.97;98640.70;1883292;75;28103;-49
2023/05/12 12:48:33;;;;;;;0.40;0.40;;;;;;;25.29;36.98;98643.73;1896526;75;28099;-47
2023/05/12 12:51:21;;;;;;;0.40;0.40;;;;;;;25.29;36.99;98639.61;1886480;75;38381;-49
2023/05/12 12:54:09;;;;;;;0.30;0.30;;;;;;;25.29;36.99;98644.28;1893789;75;28084;-50
2023/05/12 12:56:58;;;;;;;0.25;0.25;;;;;;;25.29;36.96;98632.73;1888235;75;28092;-50
2023/05/12 12:59:47;;;;;;;0.30;0.30;;;;;;;25.27;36.97;98634.94;1856900;77;28096;-46
2023/05/12 13:02:36;;;;;;;0.35;0.35;;;;;;;25.28;37.00;98638.48;1874733;75;28061;-48
2023/05/12 13:05:24;;;;;;;0.60;0.60;;;;;;;25.30;36.96;98639.87;1886264;75;28432;-51
2023/05/12 13:08:12;;;;;;;0.40;0.40;;;;;;;25.31;36.91;98635.20;1897655;75;28102;-50
2023/05/12 13:11:01;;;;;;;0.40;0.40;;;;;;;25.30;36.97;98637.13;1856984;75;31953;-49
2023/05/12 13:13:49;;;;;;;0.28;0.28;;;;;;;25.29;36.95;98633.28;1891497;75;30097;-50